Brownsville, Kentucky
Current Conditions -  °F | °C
As of 9:53 PM on Friday 19 Dec 2014 (Local Time) from KBWG Reporting Station
Few Clouds Few Clouds  
Wind Chill: 30°   Ceiling: Unl
Heat Index: 34°   Visibility: 10mi
Dew Point: 26°   Wind: 5mph
Humidity: 73%   Direction: 50°NE
Pressure: 30.25"   Gusts: NA
Location:  37.19°N, 86.27°W
Report Text: KBWG 200353Z AUTO 05004KT 10SM FEW120 01/M03 A3025 RMK AO2 SLP247 T00111033
Loading
Personal Weather Stations






























Interactive Weather Map New forecast layout! Learn more

10-Day Weather Forecast

Advertisements
Track Severe Weather on mobile